sensor_id;sensor_type;location;lat;lon;timestamp;temperature;humidity
11140;DHT22;5624;49.388;11.350;2023-06-14T00:02:17;15.00;51.70
11140;DHT22;5624;49.388;11.350;2023-06-14T00:04:43;14.90;52.00
11140;DHT22;5624;49.388;11.350;2023-06-14T00:07:09;14.90;52.20
11140;DHT22;5624;49.388;11.350;2023-06-14T00:09:34;14.80;52.40
11140;DHT22;5624;49.388;11.350;2023-06-14T00:12:00;14.80;52.70
11140;DHT22;5624;49.388;11.350;2023-06-14T00:14:26;14.70;53.00
11140;DHT22;5624;49.388;11.350;2023-06-14T00:16:51;14.80;52.60
11140;DHT22;5624;49.388;11.350;2023-06-14T00:19:24;14.70;52.80
11140;DHT22;5624;49.388;11.350;2023-06-14T00:21:50;14.60;53.50
11140;DHT22;5624;49.388;11.350;2023-06-14T00:24:17;14.60;53.40
11140;DHT22;5624;49.388;11.350;2023-06-14T00:26:42;14.50;53.90
11140;DHT22;5624;49.388;11.350;2023-06-14T00:29:08;14.60;53.90
11140;DHT22;5624;49.388;11.350;2023-06-14T00:31:34;14.60;53.80
11140;DHT22;5624;49.388;11.350;2023-06-14T00:33:59;14.60;53.90
11140;DHT22;5624;49.388;11.350;2023-06-14T00:36:25;14.50;54.20
11140;DHT22;5624;49.388;11.350;2023-06-14T00:38:51;14.40;54.50
11140;DHT22;5624;49.388;11.350;2023-06-14T00:41:17;14.40;54.90
11140;DHT22;5624;49.388;11.350;2023-06-14T00:43:42;14.30;55.20
11140;DHT22;5624;49.388;11.350;2023-06-14T00:46:08;14.40;55.10
11140;DHT22;5624;49.388;11.350;2023-06-14T00:48:34;14.30;55.20
11140;DHT22;5624;49.388;11.350;2023-06-14T00:51:00;14.30;55.60
11140;DHT22;5624;49.388;11.350;2023-06-14T00:53:29;14.20;55.70
11140;DHT22;5624;49.388;11.350;2023-06-14T00:55:56;14.20;55.80
11140;DHT22;5624;49.388;11.350;2023-06-14T00:58:22;14.10;56.50
11140;DHT22;5624;49.388;11.350;2023-06-14T01:00:48;14.10;56.40
11140;DHT22;5624;49.388;11.350;2023-06-14T01:03:14;14.00;56.90
11140;DHT22;5624;49.388;11.350;2023-06-14T01:05:47;13.90;57.40
11140;DHT22;5624;49.388;11.350;2023-06-14T01:11:21;13.80;57.70
11140;DHT22;5624;49.388;11.350;2023-06-14T01:13:49;13.60;58.20
11140;DHT22;5624;49.388;11.350;2023-06-14T01:16:17;13.60;58.20
11140;DHT22;5624;49.388;11.350;2023-06-14T01:18:44;13.40;58.90
11140;DHT22;5624;49.388;11.350;2023-06-14T01:21:23;13.40;59.00
11140;DHT22;5624;49.388;11.350;2023-06-14T01:23:50;13.40;59.30
11140;DHT22;5624;49.388;11.350;2023-06-14T01:26:22;13.20;59.50
11140;DHT22;5624;49.388;11.350;2023-06-14T01:28:49;13.10;60.10
11140;DHT22;5624;49.388;11.350;2023-06-14T01:31:19;13.00;60.50
11140;DHT22;5624;49.388;11.350;2023-06-14T01:33:45;12.90;60.90
11140;DHT22;5624;49.388;11.350;2023-06-14T01:36:12;12.90;60.80
11140;DHT22;5624;49.388;11.350;2023-06-14T01:38:38;12.90;61.30
11140;DHT22;5624;49.388;11.350;2023-06-14T01:41:04;12.90;60.70
11140;DHT22;5624;49.388;11.350;2023-06-14T01:43:31;12.80;61.20
11140;DHT22;5624;49.388;11.350;2023-06-14T01:45:57;12.80;61.30
11140;DHT22;5624;49.388;11.350;2023-06-14T01:48:24;12.80;61.30
11140;DHT22;5624;49.388;11.350;2023-06-14T01:50:50;12.80;61.00
11140;DHT22;5624;49.388;11.350;2023-06-14T01:53:17;12.80;61.20
11140;DHT22;5624;49.388;11.350;2023-06-14T01:55:42;12.70;61.60
11140;DHT22;5624;49.388;11.350;2023-06-14T01:58:10;12.60;61.90
11140;DHT22;5624;49.388;11.350;2023-06-14T02:00:36;12.50;62.10
11140;DHT22;5624;49.388;11.350;2023-06-14T02:03:01;12.50;62.60
11140;DHT22;5624;49.388;11.350;2023-06-14T02:05:29;12.50;62.50
11140;DHT22;5624;49.388;11.350;2023-06-14T02:07:55;12.40;62.70
11140;DHT22;5624;49.388;11.350;2023-06-14T02:10:21;12.40;62.90
11140;DHT22;5624;49.388;11.350;2023-06-14T02:12:46;12.40;62.70
11140;DHT22;5624;49.388;11.350;2023-06-14T02:15:12;12.40;62.60
11140;DHT22;5624;49.388;11.350;2023-06-14T02:17:42;12.50;62.60
11140;DHT22;5624;49.388;11.350;2023-06-14T02:20:08;12.50;62.40
11140;DHT22;5624;49.388;11.350;2023-06-14T02:22:35;12.40;62.80
11140;DHT22;5624;49.388;11.350;2023-06-14T02:25:00;12.40;62.60
11140;DHT22;5624;49.388;11.350;2023-06-14T02:27:26;12.40;62.60
11140;DHT22;5624;49.388;11.350;2023-06-14T02:29:51;12.40;62.60
11140;DHT22;5624;49.388;11.350;2023-06-14T02:32:17;12.40;62.60
11140;DHT22;5624;49.388;11.350;2023-06-14T02:34:43;12.30;62.90
11140;DHT22;5624;49.388;11.350;2023-06-14T02:37:08;12.30;62.90
11140;DHT22;5624;49.388;11.350;2023-06-14T02:39:34;12.30;63.10
11140;DHT22;5624;49.388;11.350;2023-06-14T02:42:00;12.20;63.10
11140;DHT22;5624;49.388;11.350;2023-06-14T02:44:26;12.30;62.70
11140;DHT22;5624;49.388;11.350;2023-06-14T02:46:56;12.30;62.60
11140;DHT22;5624;49.388;11.350;2023-06-14T02:49:22;12.30;62.70
11140;DHT22;5624;49.388;11.350;2023-06-14T02:51:48;12.20;63.10
11140;DHT22;5624;49.388;11.350;2023-06-14T02:54:13;12.10;63.30
11140;DHT22;5624;49.388;11.350;2023-06-14T02:56:39;12.10;63.30
11140;DHT22;5624;49.388;11.350;2023-06-14T02:59:04;12.10;63.20
11140;DHT22;5624;49.388;11.350;2023-06-14T03:01:30;12.10;63.50
11140;DHT22;5624;49.388;11.350;2023-06-14T03:03:59;12.10;63.30
11140;DHT22;5624;49.388;11.350;2023-06-14T03:06:25;12.00;63.50
11140;DHT22;5624;49.388;11.350;2023-06-14T03:08:50;12.00;63.60
11140;DHT22;5624;49.388;11.350;2023-06-14T03:11:17;12.00;63.70
11140;DHT22;5624;49.388;11.350;2023-06-14T03:13:45;12.00;64.20
11140;DHT22;5624;49.388;11.350;2023-06-14T03:16:12;12.00;63.80
11140;DHT22;5624;49.388;11.350;2023-06-14T03:18:37;11.90;63.90
11140;DHT22;5624;49.388;11.350;2023-06-14T03:21:04;12.00;63.50
11140;DHT22;5624;49.388;11.350;2023-06-14T03:23:30;12.10;63.60
11140;DHT22;5624;49.388;11.350;2023-06-14T03:25:56;12.10;63.40
11140;DHT22;5624;49.388;11.350;2023-06-14T03:28:22;12.10;63.50
11140;DHT22;5624;49.388;11.350;2023-06-14T03:30:48;12.20;63.20
11140;DHT22;5624;49.388;11.350;2023-06-14T03:33:13;12.10;63.30
11140;DHT22;5624;49.388;11.350;2023-06-14T03:35:39;12.20;63.00
11140;DHT22;5624;49.388;11.350;2023-06-14T03:38:05;12.20;63.40
11140;DHT22;5624;49.388;11.350;2023-06-14T03:40:30;12.20;63.30
11140;DHT22;5624;49.388;11.350;2023-06-14T03:42:56;12.10;63.50
11140;DHT22;5624;49.388;11.350;2023-06-14T03:45:22;12.20;63.50
11140;DHT22;5624;49.388;11.350;2023-06-14T03:47:47;12.10;63.80
11140;DHT22;5624;49.388;11.350;2023-06-14T03:50:13;12.10;63.90
11140;DHT22;5624;49.388;11.350;2023-06-14T03:52:39;12.10;63.90
11140;DHT22;5624;49.388;11.350;2023-06-14T03:55:06;12.10;64.30
11140;DHT22;5624;49.388;11.350;2023-06-14T03:57:31;12.10;64.20
11140;DHT22;5624;49.388;11.350;2023-06-14T03:59:57;12.10;64.30
11140;DHT22;5624;49.388;11.350;2023-06-14T04:02:22;12.10;64.30
11140;DHT22;5624;49.388;11.350;2023-06-14T04:04:48;12.10;64.50
11140;DHT22;5624;49.388;11.350;2023-06-14T04:07:15;12.10;64.50
11140;DHT22;5624;49.388;11.350;2023-06-14T04:09:44;12.10;64.40
11140;DHT22;5624;49.388;11.350;2023-06-14T04:12:10;12.10;64.80
11140;DHT22;5624;49.388;11.350;2023-06-14T04:14:37;12.10;65.00
11140;DHT22;5624;49.388;11.350;2023-06-14T04:17:03;12.10;65.00
11140;DHT22;5624;49.388;11.350;2023-06-14T04:19:28;12.10;65.30
11140;DHT22;5624;49.388;11.350;2023-06-14T04:21:54;12.10;65.50
11140;DHT22;5624;49.388;11.350;2023-06-14T04:24:20;12.10;65.50
11140;DHT22;5624;49.388;11.350;2023-06-14T04:26:45;12.10;65.50
11140;DHT22;5624;49.388;11.350;2023-06-14T04:29:16;12.10;65.60
11140;DHT22;5624;49.388;11.350;2023-06-14T04:31:46;12.10;65.80
11140;DHT22;5624;49.388;11.350;2023-06-14T04:34:12;12.10;66.30
11140;DHT22;5624;49.388;11.350;2023-06-14T04:36:44;12.20;66.10
11140;DHT22;5624;49.388;11.350;2023-06-14T04:39:15;12.20;66.80
11140;DHT22;5624;49.388;11.350;2023-06-14T04:41:43;12.20;66.40
11140;DHT22;5624;49.388;11.350;2023-06-14T04:44:08;12.60;66.00
11140;DHT22;5624;49.388;11.350;2023-06-14T04:46:35;13.40;63.30
11140;DHT22;5624;49.388;11.350;2023-06-14T04:49:09;14.20;60.50
11140;DHT22;5624;49.388;11.350;2023-06-14T04:51:35;15.30;57.70
11140;DHT22;5624;49.388;11.350;2023-06-14T04:54:02;16.10;54.40
11140;DHT22;5624;49.388;11.350;2023-06-14T04:56:28;16.10;54.60
11140;DHT22;5624;49.388;11.350;2023-06-14T04:58:54;15.70;55.40
11140;DHT22;5624;49.388;11.350;2023-06-14T05:01:22;15.10;57.00
11140;DHT22;5624;49.388;11.350;2023-06-14T05:03:49;14.80;58.30
11140;DHT22;5624;49.388;11.350;2023-06-14T05:06:15;14.40;59.70
11140;DHT22;5624;49.388;11.350;2023-06-14T05:08:41;14.20;60.30
11140;DHT22;5624;49.388;11.350;2023-06-14T05:11:07;14.10;61.30
11140;DHT22;5624;49.388;11.350;2023-06-14T05:13:32;14.10;61.30
11140;DHT22;5624;49.388;11.350;2023-06-14T05:15:58;14.00;62.00
11140;DHT22;5624;49.388;11.350;2023-06-14T05:18:24;14.00;61.60
11140;DHT22;5624;49.388;11.350;2023-06-14T05:20:51;14.00;62.40
11140;DHT22;5624;49.388;11.350;2023-06-14T05:23:16;14.10;62.30
11140;DHT22;5624;49.388;11.350;2023-06-14T05:25:43;14.30;61.40
11140;DHT22;5624;49.388;11.350;2023-06-14T05:28:09;14.30;62.20
11140;DHT22;5624;49.388;11.350;2023-06-14T05:30:35;14.60;61.20
11140;DHT22;5624;49.388;11.350;2023-06-14T05:33:01;14.70;60.60
11140;DHT22;5624;49.388;11.350;2023-06-14T05:35:26;14.80;60.60
11140;DHT22;5624;49.388;11.350;2023-06-14T05:37:52;14.90;59.90
11140;DHT22;5624;49.388;11.350;2023-06-14T05:40:19;14.80;59.80
11140;DHT22;5624;49.388;11.350;2023-06-14T05:42:45;14.90;60.20
11140;DHT22;5624;49.388;11.350;2023-06-14T05:45:11;15.30;58.80
11140;DHT22;5624;49.388;11.350;2023-06-14T05:47:36;15.40;58.60
11140;DHT22;5624;49.388;11.350;2023-06-14T05:50:02;15.80;57.90
11140;DHT22;5624;49.388;11.350;2023-06-14T05:52:28;15.90;56.20
11140;DHT22;5624;49.388;11.350;2023-06-14T05:54:55;16.20;55.70
11140;DHT22;5624;49.388;11.350;2023-06-14T05:57:20;16.50;55.50
11140;DHT22;5624;49.388;11.350;2023-06-14T05:59:46;16.80;53.80
11140;DHT22;5624;49.388;11.350;2023-06-14T06:02:12;17.10;52.60
11140;DHT22;5624;49.388;11.350;2023-06-14T06:04:37;17.70;51.90
11140;DHT22;5624;49.388;11.350;2023-06-14T06:07:03;18.20;49.20
11140;DHT22;5624;49.388;11.350;2023-06-14T06:09:29;18.30;49.20
11140;DHT22;5624;49.388;11.350;2023-06-14T06:11:55;18.60;48.80
11140;DHT22;5624;49.388;11.350;2023-06-14T06:14:21;19.20;46.90
11140;DHT22;5624;49.388;11.350;2023-06-14T06:16:46;19.60;46.40
11140;DHT22;5624;49.388;11.350;2023-06-14T06:19:12;20.10;45.10
11140;DHT22;5624;49.388;11.350;2023-06-14T06:21:37;20.50;44.10
11140;DHT22;5624;49.388;11.350;2023-06-14T06:24:05;21.00;44.20
11140;DHT22;5624;49.388;11.350;2023-06-14T06:26:31;22.20;40.30
11140;DHT22;5624;49.388;11.350;2023-06-14T06:29:00;23.20;39.50
11140;DHT22;5624;49.388;11.350;2023-06-14T06:31:25;24.60;37.80
11140;DHT22;5624;49.388;11.350;2023-06-14T06:33:53;25.10;36.30
11140;DHT22;5624;49.388;11.350;2023-06-14T06:36:20;24.40;35.80
11140;DHT22;5624;49.388;11.350;2023-06-14T06:38:47;23.60;36.70
11140;DHT22;5624;49.388;11.350;2023-06-14T06:41:13;23.70;36.90
11140;DHT22;5624;49.388;11.350;2023-06-14T06:43:38;23.50;37.40
11140;DHT22;5624;49.388;11.350;2023-06-14T06:46:04;22.80;38.30
11140;DHT22;5624;49.388;11.350;2023-06-14T06:48:30;23.00;38.70
11140;DHT22;5624;49.388;11.350;2023-06-14T06:50:55;24.00;37.70
11140;DHT22;5624;49.388;11.350;2023-06-14T06:53:21;25.10;35.30
11140;DHT22;5624;49.388;11.350;2023-06-14T06:55:46;24.60;36.50
11140;DHT22;5624;49.388;11.350;2023-06-14T06:58:13;24.70;35.80
11140;DHT22;5624;49.388;11.350;2023-06-14T07:00:39;24.40;36.30
11140;DHT22;5624;49.388;11.350;2023-06-14T07:03:05;24.30;37.10
11140;DHT22;5624;49.388;11.350;2023-06-14T07:05:30;24.50;36.10
11140;DHT22;5624;49.388;11.350;2023-06-14T07:07:56;25.30;34.80
11140;DHT22;5624;49.388;11.350;2023-06-14T07:10:22;25.80;34.20
11140;DHT22;5624;49.388;11.350;2023-06-14T07:12:50;25.20;33.50
11140;DHT22;5624;49.388;11.350;2023-06-14T07:15:15;23.50;36.30
11140;DHT22;5624;49.388;11.350;2023-06-14T07:17:41;23.40;37.80
11140;DHT22;5624;49.388;11.350;2023-06-14T07:20:08;23.90;36.90
11140;DHT22;5624;49.388;11.350;2023-06-14T07:22:41;24.80;36.10
11140;DHT22;5624;49.388;11.350;2023-06-14T07:25:10;24.10;36.00
11140;DHT22;5624;49.388;11.350;2023-06-14T07:27:42;24.00;34.90
11140;DHT22;5624;49.388;11.350;2023-06-14T07:30:09;23.60;35.10
11140;DHT22;5624;49.388;11.350;2023-06-14T07:32:35;23.60;35.20
11140;DHT22;5624;49.388;11.350;2023-06-14T07:35:01;23.50;36.00
11140;DHT22;5624;49.388;11.350;2023-06-14T07:37:26;23.80;35.20
11140;DHT22;5624;49.388;11.350;2023-06-14T07:39:52;23.80;35.50
11140;DHT22;5624;49.388;11.350;2023-06-14T07:42:17;24.10;34.70
11140;DHT22;5624;49.388;11.350;2023-06-14T07:44:43;24.20;34.80
11140;DHT22;5624;49.388;11.350;2023-06-14T07:47:08;24.40;34.70
11140;DHT22;5624;49.388;11.350;2023-06-14T07:49:34;24.30;34.30
11140;DHT22;5624;49.388;11.350;2023-06-14T07:52:00;23.80;34.70
11140;DHT22;5624;49.388;11.350;2023-06-14T07:54:25;24.10;35.60
11140;DHT22;5624;49.388;11.350;2023-06-14T07:56:52;24.80;33.40
11140;DHT22;5624;49.388;11.350;2023-06-14T07:59:17;24.50;34.00
11140;DHT22;5624;49.388;11.350;2023-06-14T08:01:43;24.90;33.40
11140;DHT22;5624;49.388;11.350;2023-06-14T08:04:16;25.10;33.50
11140;DHT22;5624;49.388;11.350;2023-06-14T08:06:42;25.10;33.00
11140;DHT22;5624;49.388;11.350;2023-06-14T08:09:11;25.20;32.80
11140;DHT22;5624;49.388;11.350;2023-06-14T08:11:38;25.00;32.50
11140;DHT22;5624;49.388;11.350;2023-06-14T08:14:03;25.00;33.10
11140;DHT22;5624;49.388;11.350;2023-06-14T08:16:29;25.50;32.20
11140;DHT22;5624;49.388;11.350;2023-06-14T08:18:55;26.30;31.60
11140;DHT22;5624;49.388;11.350;2023-06-14T08:21:21;26.30;31.80
11140;DHT22;5624;49.388;11.350;2023-06-14T08:23:47;26.10;32.30
11140;DHT22;5624;49.388;11.350;2023-06-14T08:26:12;25.70;33.20
11140;DHT22;5624;49.388;11.350;2023-06-14T08:28:38;25.40;33.90
11140;DHT22;5624;49.388;11.350;2023-06-14T08:31:04;24.30;35.70
11140;DHT22;5624;49.388;11.350;2023-06-14T08:33:30;23.70;36.80
11140;DHT22;5624;49.388;11.350;2023-06-14T08:35:58;23.30;37.40
11140;DHT22;5624;49.388;11.350;2023-06-14T08:38:23;23.40;37.30
11140;DHT22;5624;49.388;11.350;2023-06-14T08:40:50;23.60;37.40
11140;DHT22;5624;49.388;11.350;2023-06-14T08:43:17;23.60;37.90
11140;DHT22;5624;49.388;11.350;2023-06-14T08:45:46;23.70;37.00
11140;DHT22;5624;49.388;11.350;2023-06-14T08:48:12;23.90;37.30
11140;DHT22;5624;49.388;11.350;2023-06-14T08:50:43;24.10;35.20
11140;DHT22;5624;49.388;11.350;2023-06-14T08:53:13;23.70;34.80
11140;DHT22;5624;49.388;11.350;2023-06-14T08:55:45;24.10;36.10
11140;DHT22;5624;49.388;11.350;2023-06-14T08:58:11;24.00;36.20
11140;DHT22;5624;49.388;11.350;2023-06-14T09:00:40;23.80;36.00
11140;DHT22;5624;49.388;11.350;2023-06-14T09:03:07;24.20;35.60
11140;DHT22;5624;49.388;11.350;2023-06-14T09:05:38;24.00;36.10
11140;DHT22;5624;49.388;11.350;2023-06-14T09:08:04;23.70;35.40
11140;DHT22;5624;49.388;11.350;2023-06-14T09:10:31;24.20;33.60
11140;DHT22;5624;49.388;11.350;2023-06-14T09:13:01;24.50;33.30
11140;DHT22;5624;49.388;11.350;2023-06-14T09:15:27;25.00;34.00
11140;DHT22;5624;49.388;11.350;2023-06-14T09:17:53;25.40;32.80
11140;DHT22;5624;49.388;11.350;2023-06-14T09:20:18;25.90;32.60
11140;DHT22;5624;49.388;11.350;2023-06-14T09:22:45;26.00;33.50
11140;DHT22;5624;49.388;11.350;2023-06-14T09:25:10;26.40;32.60
11140;DHT22;5624;49.388;11.350;2023-06-14T09:27:38;26.10;31.80
11140;DHT22;5624;49.388;11.350;2023-06-14T09:30:08;25.20;33.00
11140;DHT22;5624;49.388;11.350;2023-06-14T09:32:38;24.50;35.20
11140;DHT22;5624;49.388;11.350;2023-06-14T09:35:06;24.10;34.60
11140;DHT22;5624;49.388;11.350;2023-06-14T09:37:33;24.00;35.40
11140;DHT22;5624;49.388;11.350;2023-06-14T09:39:59;25.10;35.20
11140;DHT22;5624;49.388;11.350;2023-06-14T09:42:25;25.40;32.90
11140;DHT22;5624;49.388;11.350;2023-06-14T09:44:54;25.30;32.70
11140;DHT22;5624;49.388;11.350;2023-06-14T09:47:21;25.30;32.80
11140;DHT22;5624;49.388;11.350;2023-06-14T09:49:47;25.10;32.70
11140;DHT22;5624;49.388;11.350;2023-06-14T09:52:20;25.00;34.00
11140;DHT22;5624;49.388;11.350;2023-06-14T09:54:47;24.80;34.00
11140;DHT22;5624;49.388;11.350;2023-06-14T09:57:14;23.80;35.10
11140;DHT22;5624;49.388;11.350;2023-06-14T09:59:42;23.50;35.80
11140;DHT22;5624;49.388;11.350;2023-06-14T10:02:29;23.00;36.70
11140;DHT22;5624;49.388;11.350;2023-06-14T10:05:07;23.00;36.90
11140;DHT22;5624;49.388;11.350;2023-06-14T10:07:52;22.90;36.20
11140;DHT22;5624;49.388;11.350;2023-06-14T10:10:18;22.60;37.50
11140;DHT22;5624;49.388;11.350;2023-06-14T10:12:44;22.30;38.50
11140;DHT22;5624;49.388;11.350;2023-06-14T10:15:17;22.30;38.60
11140;DHT22;5624;49.388;11.350;2023-06-14T10:17:49;22.20;38.40
11140;DHT22;5624;49.388;11.350;2023-06-14T10:23:24;21.60;38.60
11140;DHT22;5624;49.388;11.350;2023-06-14T10:25:53;21.40;38.80
11140;DHT22;5624;49.388;11.350;2023-06-14T10:28:21;21.40;39.30
11140;DHT22;5624;49.388;11.350;2023-06-14T10:31:10;21.40;40.00
11140;DHT22;5624;49.388;11.350;2023-06-14T10:36:25;21.20;38.80
11140;DHT22;5624;49.388;11.350;2023-06-14T10:39:10;21.00;39.90
11140;DHT22;5624;49.388;11.350;2023-06-14T10:41:40;20.80;40.70
11140;DHT22;5624;49.388;11.350;2023-06-14T10:46:46;20.80;40.30
11140;DHT22;5624;49.388;11.350;2023-06-14T10:49:12;20.70;40.80
11140;DHT22;5624;49.388;11.350;2023-06-14T10:51:42;20.90;40.30
11140;DHT22;5624;49.388;11.350;2023-06-14T10:54:12;21.30;40.10
11140;DHT22;5624;49.388;11.350;2023-06-14T10:56:48;21.60;39.70
11140;DHT22;5624;49.388;11.350;2023-06-14T10:59:15;21.50;39.90
11140;DHT22;5624;49.388;11.350;2023-06-14T11:10:05;22.20;34.10
11140;DHT22;5624;49.388;11.350;2023-06-14T11:12:36;22.60;33.70
11140;DHT22;5624;49.388;11.350;2023-06-14T11:15:02;22.80;33.50
11140;DHT22;5624;49.388;11.350;2023-06-14T11:17:28;23.10;33.00
11140;DHT22;5624;49.388;11.350;2023-06-14T11:20:11;23.40;32.70
11140;DHT22;5624;49.388;11.350;2023-06-14T11:22:44;23.90;31.30
11140;DHT22;5624;49.388;11.350;2023-06-14T11:25:11;24.20;31.70
11140;DHT22;5624;49.388;11.350;2023-06-14T11:27:37;24.00;34.40
11140;DHT22;5624;49.388;11.350;2023-06-14T11:30:03;24.00;31.50
11140;DHT22;5624;49.388;11.350;2023-06-14T11:32:31;23.30;31.40
11140;DHT22;5624;49.388;11.350;2023-06-14T11:34:57;22.60;33.80
11140;DHT22;5624;49.388;11.350;2023-06-14T11:37:24;22.60;32.40
11140;DHT22;5624;49.388;11.350;2023-06-14T11:39:51;23.30;32.20
11140;DHT22;5624;49.388;11.350;2023-06-14T11:42:17;24.20;30.50
11140;DHT22;5624;49.388;11.350;2023-06-14T11:44:46;24.60;30.00
11140;DHT22;5624;49.388;11.350;2023-06-14T11:47:12;24.30;30.30
11140;DHT22;5624;49.388;11.350;2023-06-14T11:49:38;23.80;30.40
11140;DHT22;5624;49.388;11.350;2023-06-14T11:52:04;24.00;31.40
11140;DHT22;5624;49.388;11.350;2023-06-14T11:54:31;23.80;30.60
11140;DHT22;5624;49.388;11.350;2023-06-14T11:56:57;23.60;31.50
11140;DHT22;5624;49.388;11.350;2023-06-14T11:59:24;23.40;31.20
11140;DHT22;5624;49.388;11.350;2023-06-14T12:01:52;23.40;30.90
11140;DHT22;5624;49.388;11.350;2023-06-14T12:04:28;23.40;30.80
11140;DHT22;5624;49.388;11.350;2023-06-14T12:06:54;23.80;30.10
11140;DHT22;5624;49.388;11.350;2023-06-14T12:09:21;23.90;31.30
11140;DHT22;5624;49.388;11.350;2023-06-14T12:12:00;24.00;29.80
11140;DHT22;5624;49.388;11.350;2023-06-14T12:14:30;24.10;28.90
11140;DHT22;5624;49.388;11.350;2023-06-14T12:17:07;24.10;29.50
11140;DHT22;5624;49.388;11.350;2023-06-14T12:19:33;24.60;30.50
11140;DHT22;5624;49.388;11.350;2023-06-14T12:22:04;24.50;28.20
11140;DHT22;5624;49.388;11.350;2023-06-14T12:24:30;24.80;30.10
11140;DHT22;5624;49.388;11.350;2023-06-14T12:27:00;25.50;28.80
11140;DHT22;5624;49.388;11.350;2023-06-14T12:29:28;26.00;28.10
11140;DHT22;5624;49.388;11.350;2023-06-14T12:31:54;25.90;27.40
11140;DHT22;5624;49.388;11.350;2023-06-14T12:34:23;25.80;27.00
11140;DHT22;5624;49.388;11.350;2023-06-14T12:36:50;25.50;27.50
11140;DHT22;5624;49.388;11.350;2023-06-14T12:39:16;25.40;27.00
11140;DHT22;5624;49.388;11.350;2023-06-14T12:41:42;25.90;26.10
11140;DHT22;5624;49.388;11.350;2023-06-14T12:44:08;25.90;28.10
11140;DHT22;5624;49.388;11.350;2023-06-14T12:46:34;25.30;28.90
11140;DHT22;5624;49.388;11.350;2023-06-14T12:49:00;25.00;27.40
11140;DHT22;5624;49.388;11.350;2023-06-14T12:51:26;24.60;27.90
11140;DHT22;5624;49.388;11.350;2023-06-14T12:53:52;24.50;29.20
11140;DHT22;5624;49.388;11.350;2023-06-14T12:56:18;24.90;29.10
11140;DHT22;5624;49.388;11.350;2023-06-14T12:58:43;24.90;28.50
11140;DHT22;5624;49.388;11.350;2023-06-14T13:01:09;24.60;28.40
11140;DHT22;5624;49.388;11.350;2023-06-14T13:03:35;24.00;29.10
11140;DHT22;5624;49.388;11.350;2023-06-14T13:06:01;23.70;29.20
11140;DHT22;5624;49.388;11.350;2023-06-14T13:08:27;23.60;29.80
11140;DHT22;5624;49.388;11.350;2023-06-14T13:10:53;23.80;30.60
11140;DHT22;5624;49.388;11.350;2023-06-14T13:13:19;24.00;30.90
11140;DHT22;5624;49.388;11.350;2023-06-14T13:15:45;24.20;31.10
11140;DHT22;5624;49.388;11.350;2023-06-14T13:18:12;23.80;28.80
11140;DHT22;5624;49.388;11.350;2023-06-14T13:20:40;23.60;29.90
11140;DHT22;5624;49.388;11.350;2023-06-14T13:23:06;23.30;30.30
11140;DHT22;5624;49.388;11.350;2023-06-14T13:25:33;23.10;31.00
11140;DHT22;5624;49.388;11.350;2023-06-14T13:27:59;23.00;29.60
11140;DHT22;5624;49.388;11.350;2023-06-14T13:30:25;23.20;30.60
11140;DHT22;5624;49.388;11.350;2023-06-14T13:32:51;23.40;30.50
11140;DHT22;5624;49.388;11.350;2023-06-14T13:35:18;23.70;30.10
11140;DHT22;5624;49.388;11.350;2023-06-14T13:37:44;23.80;28.70
11140;DHT22;5624;49.388;11.350;2023-06-14T13:40:11;23.70;29.90
11140;DHT22;5624;49.388;11.350;2023-06-14T13:42:36;23.60;28.50
11140;DHT22;5624;49.388;11.350;2023-06-14T13:45:03;23.40;28.60
11140;DHT22;5624;49.388;11.350;2023-06-14T13:47:29;23.40;28.90
11140;DHT22;5624;49.388;11.350;2023-06-14T13:49:55;23.30;27.90
11140;DHT22;5624;49.388;11.350;2023-06-14T13:52:21;23.10;27.80
11140;DHT22;5624;49.388;11.350;2023-06-14T13:54:47;23.10;30.00
11140;DHT22;5624;49.388;11.350;2023-06-14T13:57:12;23.20;29.10
11140;DHT22;5624;49.388;11.350;2023-06-14T13:59:39;23.50;30.10
11140;DHT22;5624;49.388;11.350;2023-06-14T14:02:06;23.60;28.20
11140;DHT22;5624;49.388;11.350;2023-06-14T14:04:31;23.70;31.00
11140;DHT22;5624;49.388;11.350;2023-06-14T14:06:57;24.00;29.50
11140;DHT22;5624;49.388;11.350;2023-06-14T14:09:23;24.40;30.80
11140;DHT22;5624;49.388;11.350;2023-06-14T14:11:49;24.40;31.30
11140;DHT22;5624;49.388;11.350;2023-06-14T14:14:15;24.10;31.70
11140;DHT22;5624;49.388;11.350;2023-06-14T14:16:41;23.80;32.20
11140;DHT22;5624;49.388;11.350;2023-06-14T14:19:07;23.60;32.20
11140;DHT22;5624;49.388;11.350;2023-06-14T14:21:33;23.30;34.10
11140;DHT22;5624;49.388;11.350;2023-06-14T14:23:58;23.20;33.70
11140;DHT22;5624;49.388;11.350;2023-06-14T14:26:24;23.10;34.60
11140;DHT22;5624;49.388;11.350;2023-06-14T14:28:51;22.90;34.30
11140;DHT22;5624;49.388;11.350;2023-06-14T14:31:17;22.60;34.00
11140;DHT22;5624;49.388;11.350;2023-06-14T14:33:43;22.30;34.60
11140;DHT22;5624;49.388;11.350;2023-06-14T14:36:09;22.20;34.80
11140;DHT22;5624;49.388;11.350;2023-06-14T14:38:34;22.00;35.70
11140;DHT22;5624;49.388;11.350;2023-06-14T14:41:00;21.90;35.50
11140;DHT22;5624;49.388;11.350;2023-06-14T14:43:26;21.90;35.70
11140;DHT22;5624;49.388;11.350;2023-06-14T14:45:52;21.90;34.10
11140;DHT22;5624;49.388;11.350;2023-06-14T14:48:18;21.80;34.30
11140;DHT22;5624;49.388;11.350;2023-06-14T14:50:43;21.70;35.10
11140;DHT22;5624;49.388;11.350;2023-06-14T14:53:09;21.70;34.90
11140;DHT22;5624;49.388;11.350;2023-06-14T14:55:35;21.70;35.00
11140;DHT22;5624;49.388;11.350;2023-06-14T14:58:02;21.80;35.70
11140;DHT22;5624;49.388;11.350;2023-06-14T15:00:28;21.90;36.00
11140;DHT22;5624;49.388;11.350;2023-06-14T15:02:54;22.00;36.70
11140;DHT22;5624;49.388;11.350;2023-06-14T15:05:20;22.10;35.60
11140;DHT22;5624;49.388;11.350;2023-06-14T15:07:46;22.20;35.20
11140;DHT22;5624;49.388;11.350;2023-06-14T15:10:11;22.30;35.60
11140;DHT22;5624;49.388;11.350;2023-06-14T15:12:37;22.50;35.60
11140;DHT22;5624;49.388;11.350;2023-06-14T15:15:03;22.60;34.70
11140;DHT22;5624;49.388;11.350;2023-06-14T15:17:29;22.80;33.50
11140;DHT22;5624;49.388;11.350;2023-06-14T15:19:55;22.90;32.20
11140;DHT22;5624;49.388;11.350;2023-06-14T15:22:21;23.00;32.20
11140;DHT22;5624;49.388;11.350;2023-06-14T15:24:46;23.10;32.80
11140;DHT22;5624;49.388;11.350;2023-06-14T15:27:12;23.00;33.90
11140;DHT22;5624;49.388;11.350;2023-06-14T15:29:40;22.70;34.40
11140;DHT22;5624;49.388;11.350;2023-06-14T15:32:07;22.60;34.30
11140;DHT22;5624;49.388;11.350;2023-06-14T15:34:32;22.60;34.70
11140;DHT22;5624;49.388;11.350;2023-06-14T15:36:58;22.40;34.20
11140;DHT22;5624;49.388;11.350;2023-06-14T15:39:24;22.50;34.70
11140;DHT22;5624;49.388;11.350;2023-06-14T15:41:50;22.40;34.40
11140;DHT22;5624;49.388;11.350;2023-06-14T15:44:19;22.60;34.90
11140;DHT22;5624;49.388;11.350;2023-06-14T15:46:45;22.70;33.70
11140;DHT22;5624;49.388;11.350;2023-06-14T15:49:12;22.70;33.20